createdAt,value
2018-01-13T00:00:21.261Z,53.50
2018-01-13T00:02:48.175Z,44.33
2018-01-13T00:05:15.131Z,50.83
2018-01-13T00:07:42.829Z,43.33
2018-01-13T00:10:09.764Z,52.97
2018-01-13T00:12:36.672Z,55.75
2018-01-13T00:15:03.610Z,48.10
2018-01-13T00:17:30.527Z,53.55
2018-01-13T00:19:57.448Z,63.28
2018-01-13T00:22:24.368Z,53.72
2018-01-13T00:24:52.089Z,50.15
2018-01-13T00:27:19.025Z,50.33
2018-01-13T00:29:45.947Z,66.82
2018-01-13T00:32:13.016Z,60.92
2018-01-13T00:34:39.948Z,56.85
2018-01-13T00:37:06.852Z,62.78
2018-01-13T00:39:33.824Z,53.33
2018-01-13T00:42:01.497Z,52.95
2018-01-13T00:44:28.433Z,58.67
2018-01-13T00:46:55.357Z,50.67
2018-01-13T00:49:22.294Z,51.37
2018-01-13T00:51:49.235Z,57.42
2018-01-13T00:54:16.163Z,62.92
2018-01-13T00:56:43.152Z,53.85
2018-01-13T00:59:10.061Z,52.40
2018-01-13T01:01:36.990Z,55.47
2018-01-13T01:04:03.909Z,56.83
2018-01-13T01:06:30.815Z,57.72
2018-01-13T01:08:57.724Z,60.08
2018-01-13T01:11:24.652Z,60.30
2018-01-13T01:13:51.574Z,52.33
2018-01-13T01:16:18.476Z,55.65
2018-01-13T01:18:45.438Z,56.58
2018-01-13T01:21:12.337Z,56.58
2018-01-13T01:23:40.022Z,50.78
2018-01-13T01:26:06.950Z,57.05
2018-01-13T01:28:33.868Z,65.93
2018-01-13T01:31:01.582Z,64.28
2018-01-13T01:33:28.506Z,54.08
2018-01-13T01:35:55.438Z,62.25
2018-01-13T01:38:22.360Z,59.65
2018-01-13T01:40:49.286Z,59.92
2018-01-13T01:43:16.197Z,50.60
2018-01-13T01:45:43.122Z,63.20
2018-01-13T01:48:21.915Z,65.95
2018-01-13T01:50:48.835Z,54.75
2018-01-13T01:53:15.746Z,56.05
2018-01-13T01:55:42.668Z,54.60
2018-01-13T01:58:10.331Z,52.00
2018-01-13T02:00:38.015Z,61.22
2018-01-13T02:03:04.915Z,48.50
2018-01-13T02:05:31.836Z,52.92
2018-01-13T02:07:58.736Z,50.53
2018-01-13T02:10:25.651Z,52.67
2018-01-13T02:12:52.556Z,53.33
2018-01-13T02:15:19.508Z,56.50
2018-01-13T02:17:46.439Z,54.10
2018-01-13T02:20:13.369Z,56.55
2018-01-13T02:22:40.283Z,52.13
2018-01-13T02:25:07.972Z,50.30
2018-01-13T02:27:34.888Z,48.83
2018-01-13T02:30:02.596Z,50.83
2018-01-13T02:32:30.518Z,52.35
2018-01-13T02:34:58.214Z,55.53
2018-01-13T02:37:25.111Z,58.20
2018-01-13T02:39:52.037Z,53.13
2018-01-13T02:42:18.948Z,54.38
2018-01-13T02:44:45.866Z,55.42
2018-01-13T02:47:12.771Z,51.83
2018-01-13T02:49:39.705Z,53.45
2018-01-13T02:52:06.620Z,49.90
2018-01-13T02:54:33.540Z,48.55
2018-01-13T02:57:01.215Z,52.42
2018-01-13T02:59:28.151Z,59.80
2018-01-13T03:01:55.059Z,56.80
2018-01-13T03:04:21.989Z,57.78
2018-01-13T03:06:48.929Z,52.38
2018-01-13T03:09:15.857Z,49.72
2018-01-13T03:11:42.771Z,59.85
2018-01-13T03:14:09.687Z,58.83
2018-01-13T03:16:37.370Z,55.90
2018-01-13T03:19:05.058Z,54.72
2018-01-13T03:21:31.965Z,56.80
2018-01-13T03:23:58.884Z,57.88
2018-01-13T03:26:25.791Z,63.85
2018-01-13T03:28:52.715Z,52.20
2018-01-13T03:31:19.624Z,60.80
2018-01-13T03:33:47.319Z,60.45
2018-01-13T03:36:14.987Z,63.25
2018-01-13T03:38:41.916Z,59.78
2018-01-13T03:41:09.587Z,68.20
2018-01-13T03:43:37.268Z,57.53
2018-01-13T03:46:04.171Z,60.88
2018-01-13T03:48:31.091Z,51.58
2018-01-13T03:50:58.003Z,58.30
2018-01-13T03:53:24.944Z,65.43
2018-01-13T03:55:51.852Z,60.50
2018-01-13T03:58:18.755Z,56.30
2018-01-13T04:00:45.685Z,54.83
2018-01-13T04:03:12.608Z,56.10
2018-01-13T04:05:39.516Z,48.13
2018-01-13T04:08:06.435Z,70.70
2018-01-13T04:10:33.341Z,54.92
2018-01-13T04:13:00.276Z,55.53
2018-01-13T04:15:27.945Z,55.53
2018-01-13T04:17:54.872Z,54.63
2018-01-13T04:20:22.545Z,54.78
2018-01-13T04:22:50.251Z,51.40
2018-01-13T04:25:17.151Z,60.95
2018-01-13T04:27:44.856Z,56.28
2018-01-13T04:30:11.772Z,51.55
2018-01-13T04:32:38.687Z,55.83
2018-01-13T04:35:06.359Z,52.50
2018-01-13T04:37:33.288Z,58.97
2018-01-13T04:40:00.961Z,62.47
2018-01-13T04:42:28.652Z,55.53
2018-01-13T04:44:55.574Z,54.25
2018-01-13T04:47:23.268Z,55.85
2018-01-13T04:49:50.180Z,55.42
2018-01-13T04:52:17.867Z,62.25
2018-01-13T04:54:44.780Z,56.63
2018-01-13T04:57:12.470Z,57.35
2018-01-13T04:59:39.377Z,57.33
2018-01-13T05:02:07.060Z,58.42
2018-01-13T05:04:33.968Z,63.15
2018-01-13T05:07:00.900Z,68.18
2018-01-13T05:09:27.820Z,65.82
2018-01-13T05:11:54.760Z,60.35
2018-01-13T05:14:21.670Z,63.75
2018-01-13T05:16:49.351Z,66.87
2018-01-13T05:19:16.251Z,61.55
2018-01-13T05:21:43.176Z,74.07
2018-01-13T05:24:10.088Z,87.47
2018-01-13T05:26:37.946Z,84.62
2018-01-13T05:29:04.852Z,73.35
2018-01-13T05:31:31.775Z,78.82
2018-01-13T05:33:58.692Z,77.62
2018-01-13T05:36:25.620Z,90.20
2018-01-13T05:38:52.550Z,85.45
2018-01-13T05:41:20.232Z,93.57
2018-01-13T05:43:47.144Z,92.47
2018-01-13T05:46:14.068Z,95.03
2018-01-13T05:48:40.978Z,85.35
2018-01-13T05:51:07.888Z,85.55
2018-01-13T05:53:35.583Z,74.78
2018-01-13T05:56:02.494Z,81.95
2018-01-13T05:58:30.184Z,92.93
2018-01-13T06:00:57.094Z,89.97
2018-01-13T06:03:24.780Z,78.00
2018-01-13T06:05:51.685Z,87.60
2018-01-13T06:08:18.616Z,89.43
2018-01-13T06:10:45.540Z,87.47
2018-01-13T06:13:12.468Z,89.43
2018-01-13T06:15:39.381Z,86.12
2018-01-13T06:18:07.072Z,93.97
2018-01-13T06:20:33.980Z,94.13
2018-01-13T06:23:01.668Z,93.75
2018-01-13T06:25:28.568Z,81.10
2018-01-13T06:27:55.494Z,99.75
2018-01-13T06:30:22.403Z,86.47
2018-01-13T06:32:49.332Z,89.20
2018-01-13T06:35:17.000Z,98.53
2018-01-13T06:37:44.688Z,103.22
2018-01-13T06:40:11.633Z,98.93
2018-01-13T06:42:38.592Z,89.25
2018-01-13T06:45:05.509Z,99.87
2018-01-13T06:47:32.428Z,83.95
2018-01-13T06:50:00.109Z,94.13
2018-01-13T06:52:27.020Z,98.50
2018-01-13T06:54:54.703Z,104.93
2018-01-13T06:57:22.384Z,82.15
2018-01-13T06:59:49.301Z,92.12
2018-01-13T07:02:16.993Z,95.57
2018-01-13T07:04:43.901Z,90.85
2018-01-13T07:07:11.587Z,85.20
2018-01-13T07:09:38.499Z,82.60
2018-01-13T07:12:05.451Z,97.62
2018-01-13T07:14:32.356Z,75.03
2018-01-13T07:16:59.327Z,81.28
2018-01-13T07:19:26.217Z,85.55
2018-01-13T07:21:53.165Z,83.35
2018-01-13T07:24:20.081Z,85.80
2018-01-13T07:26:47.768Z,86.75
2018-01-13T07:29:14.672Z,79.12
2018-01-13T07:31:42.555Z,89.10
2018-01-13T07:34:10.224Z,80.60
2018-01-13T07:36:37.908Z,86.55
2018-01-13T07:39:04.820Z,76.85
2018-01-13T07:41:32.509Z,73.35
2018-01-13T07:43:59.427Z,84.15
2018-01-13T07:46:27.117Z,81.72
2018-01-13T07:48:54.029Z,71.43
2018-01-13T07:51:21.716Z,77.78
2018-01-13T07:53:48.632Z,87.80
2018-01-13T07:56:16.331Z,83.05
2018-01-13T07:58:44.168Z,76.55
2018-01-13T08:01:11.884Z,77.45
2018-01-13T08:03:39.576Z,85.18
2018-01-13T08:06:06.496Z,83.85
2018-01-13T08:08:33.415Z,72.70
2018-01-13T08:11:00.329Z,79.28
2018-01-13T08:13:27.995Z,87.78
2018-01-13T08:15:54.911Z,90.38
2018-01-13T08:18:21.814Z,95.70
2018-01-13T08:20:48.748Z,83.82
2018-01-13T08:23:15.661Z,89.72
2018-01-13T08:25:43.360Z,84.25
2018-01-13T08:28:10.271Z,87.72
2018-01-13T08:30:37.956Z,83.75
2018-01-13T08:33:04.864Z,87.80
2018-01-13T08:35:31.795Z,87.05
2018-01-13T08:37:58.710Z,81.90
2018-01-13T08:40:25.655Z,81.95
2018-01-13T08:42:52.569Z,79.60
2018-01-13T08:45:19.508Z,77.53
2018-01-13T08:47:46.434Z,76.75
2018-01-13T08:50:14.132Z,83.78
2018-01-13T08:52:41.041Z,84.72
2018-01-13T08:55:08.737Z,79.95
2018-01-13T08:57:35.655Z,76.40
2018-01-13T09:00:02.597Z,92.60
2018-01-13T09:02:30.280Z,80.75
2018-01-13T09:04:57.212Z,81.53
2018-01-13T09:07:24.906Z,95.97
2018-01-13T09:09:51.841Z,113.57
2018-01-13T09:12:18.747Z,74.40
2018-01-13T09:14:45.668Z,79.75
2018-01-13T09:17:12.576Z,78.28
2018-01-13T09:19:39.515Z,96.00
2018-01-13T09:22:09.508Z,94.40
2018-01-13T09:24:37.199Z,77.05
2018-01-13T09:27:04.107Z,81.93
2018-01-13T09:29:31.799Z,89.00
2018-01-13T09:31:58.703Z,79.18
2018-01-13T09:34:25.621Z,82.82
2018-01-13T09:36:52.528Z,83.60
2018-01-13T09:39:19.447Z,86.47
2018-01-13T09:41:47.120Z,94.95
2018-01-13T09:44:14.252Z,78.57
2018-01-13T09:46:41.149Z,78.75
2018-01-13T09:49:08.083Z,76.90
2018-01-13T09:51:34.994Z,84.43
2018-01-13T09:54:01.900Z,89.22
2018-01-13T09:56:28.850Z,86.03
2018-01-13T09:58:55.760Z,79.90
2018-01-13T10:01:22.709Z,81.72
2018-01-13T10:03:50.389Z,83.95
2018-01-13T10:06:17.349Z,76.28
2018-01-13T10:08:44.260Z,82.57
2018-01-13T10:11:12.962Z,76.37
2018-01-13T10:13:39.874Z,81.32
2018-01-13T10:16:06.803Z,78.20
2018-01-13T10:18:33.711Z,78.35
2018-01-13T10:21:00.642Z,87.35
2018-01-13T10:23:27.543Z,79.45
2018-01-13T10:25:54.467Z,80.60
2018-01-13T10:28:21.374Z,79.78
2018-01-13T10:30:48.292Z,76.65
2018-01-13T10:33:15.971Z,86.37
2018-01-13T10:35:42.892Z,85.68
2018-01-13T10:38:10.563Z,88.80
2018-01-13T10:40:38.260Z,93.80
2018-01-13T10:43:05.168Z,86.85
2018-01-13T10:45:32.856Z,80.05
2018-01-13T10:47:59.801Z,86.85
2018-01-13T10:50:26.737Z,96.60
2018-01-13T10:52:53.636Z,94.68
2018-01-13T10:55:20.560Z,88.97
2018-01-13T10:57:50.104Z,85.70
2018-01-13T11:00:17.791Z,94.37
2018-01-13T11:02:44.696Z,92.45
2018-01-13T11:05:11.632Z,96.10
2018-01-13T11:07:38.532Z,93.75
2018-01-13T11:10:05.471Z,80.97
2018-01-13T11:12:32.384Z,76.43
2018-01-13T11:15:00.068Z,90.85
2018-01-13T11:17:26.982Z,87.82
2018-01-13T11:19:53.905Z,87.65
2018-01-13T11:22:20.821Z,94.45
2018-01-13T11:24:47.749Z,82.55
2018-01-13T11:27:14.662Z,87.07
2018-01-13T11:29:42.353Z,80.80
2018-01-13T11:32:09.260Z,90.65
2018-01-13T11:34:36.184Z,89.47
2018-01-13T11:37:03.100Z,100.75
2018-01-13T11:39:30.022Z,83.30
2018-01-13T11:41:56.936Z,96.63
2018-01-13T11:44:23.856Z,94.03
2018-01-13T11:46:50.764Z,87.57
2018-01-13T11:49:17.676Z,96.43
2018-01-13T11:51:44.600Z,88.47
2018-01-13T11:54:11.516Z,80.75
2018-01-13T11:56:38.429Z,75.53
2018-01-13T11:59:05.334Z,82.95
2018-01-13T12:01:32.256Z,79.35
2018-01-13T12:03:59.160Z,84.37
2018-01-13T12:06:26.088Z,88.40
2018-01-13T12:08:53.773Z,84.30
2018-01-13T12:11:20.725Z,103.05
2018-01-13T12:13:49.626Z,87.55
2018-01-13T12:16:16.531Z,93.22
2018-01-13T12:18:44.226Z,95.25
2018-01-13T12:21:11.152Z,82.57
2018-01-13T12:23:38.064Z,78.95
2018-01-13T12:26:04.990Z,81.93
2018-01-13T12:28:31.892Z,91.80
2018-01-13T12:30:58.816Z,94.80
2018-01-13T12:33:26.495Z,94.47
2018-01-13T12:35:53.440Z,84.82
2018-01-13T12:38:20.364Z,90.72
2018-01-13T12:40:48.084Z,85.00
2018-01-13T12:43:15.001Z,81.20
2018-01-13T12:45:41.966Z,88.32
2018-01-13T12:48:09.891Z,83.25
2018-01-13T12:50:37.596Z,84.45
2018-01-13T12:53:04.520Z,75.12
2018-01-13T12:55:31.448Z,86.32
2018-01-13T12:57:59.127Z,80.03
2018-01-13T13:00:27.020Z,93.85
2018-01-13T13:02:53.924Z,77.82
2018-01-13T13:05:20.860Z,82.25
2018-01-13T13:07:48.532Z,81.60
2018-01-13T13:10:15.489Z,81.15
2018-01-13T13:12:42.414Z,80.22
2018-01-13T13:15:09.338Z,81.28
2018-01-13T13:17:36.247Z,82.95
2018-01-13T13:20:03.170Z,82.93
2018-01-13T13:22:30.084Z,80.43
2018-01-13T13:24:57.830Z,82.37
2018-01-13T13:27:24.727Z,79.85
2018-01-13T13:29:51.666Z,72.07
2018-01-13T13:32:18.588Z,82.35
2018-01-13T13:34:46.454Z,74.97
2018-01-13T13:37:14.120Z,74.07
2018-01-13T13:39:41.040Z,72.40
2018-01-13T13:42:07.976Z,69.80
2018-01-13T13:44:34.908Z,79.85
2018-01-13T13:47:01.835Z,78.82
2018-01-13T13:49:28.823Z,59.42
2018-01-13T13:51:56.501Z,59.95
2018-01-13T13:54:24.200Z,60.25
2018-01-13T13:56:51.122Z,72.75
2018-01-13T13:59:18.047Z,68.97
2018-01-13T14:01:44.976Z,68.10
2018-01-13T14:04:12.653Z,60.28
2018-01-13T14:06:39.581Z,59.78
2018-01-13T14:09:07.255Z,56.55
2018-01-13T14:11:34.193Z,54.92
2018-01-13T14:14:01.890Z,58.30
2018-01-13T14:16:28.803Z,55.50
2018-01-13T14:18:56.485Z,51.20
2018-01-13T14:21:23.403Z,52.90
2018-01-13T14:23:51.073Z,53.03
2018-01-13T14:26:18.780Z,47.28
2018-01-13T14:28:45.698Z,51.37
2018-01-13T14:31:12.623Z,49.75
2018-01-13T14:33:40.295Z,50.35
2018-01-13T14:36:07.215Z,47.03
2018-01-13T14:38:34.136Z,46.50
2018-01-13T14:41:01.060Z,46.90
2018-01-13T14:43:28.743Z,42.13
2018-01-13T14:45:55.666Z,50.90
2018-01-13T14:48:22.576Z,45.53
2018-01-13T14:50:49.602Z,51.70
2018-01-13T14:53:17.275Z,49.25
2018-01-13T14:55:44.960Z,48.97
2018-01-13T14:58:11.876Z,46.70
2018-01-13T15:00:39.564Z,49.97
2018-01-13T15:03:06.485Z,40.65
2018-01-13T15:05:34.191Z,45.42
2018-01-13T15:08:01.092Z,44.35
2018-01-13T15:10:28.796Z,39.88
2018-01-13T15:12:55.715Z,40.65
2018-01-13T15:15:22.636Z,40.60
2018-01-13T15:17:50.312Z,37.15
2018-01-13T15:20:17.245Z,40.33
2018-01-13T15:22:44.919Z,39.22
2018-01-13T15:25:12.747Z,39.85
2018-01-13T15:27:39.655Z,37.50
2018-01-13T15:30:06.567Z,38.25
2018-01-13T15:32:33.480Z,37.70
2018-01-13T15:35:00.405Z,33.58
2018-01-13T15:37:27.322Z,34.40
2018-01-13T15:39:54.252Z,37.75
2018-01-13T15:42:21.158Z,30.90
2018-01-13T15:44:49.060Z,33.03
2018-01-13T15:47:15.981Z,33.72
2018-01-13T15:49:42.913Z,36.08
2018-01-13T15:52:09.840Z,33.63
2018-01-13T15:54:36.781Z,31.83
2018-01-13T15:57:04.637Z,36.40
2018-01-13T15:59:31.584Z,32.53
2018-01-13T16:01:58.507Z,34.17
2018-01-13T16:04:25.432Z,27.40
2018-01-13T16:06:52.365Z,25.75
2018-01-13T16:09:19.287Z,29.02
2018-01-13T16:11:46.204Z,37.58
2018-01-13T16:14:13.141Z,30.85
2018-01-13T16:16:40.814Z,33.63
2018-01-13T16:19:07.738Z,29.80
2018-01-13T16:21:35.428Z,31.23
2018-01-13T16:24:02.336Z,25.02
2018-01-13T16:26:29.286Z,24.70
2018-01-13T16:28:56.203Z,29.30
2018-01-13T16:31:23.945Z,30.60
2018-01-13T16:33:50.835Z,36.40
2018-01-13T16:36:17.760Z,30.40
2018-01-13T16:38:44.661Z,30.77
2018-01-13T16:41:11.597Z,31.80
2018-01-13T16:43:38.513Z,33.80
2018-01-13T16:46:05.440Z,30.77
2018-01-13T16:48:32.416Z,30.35
2018-01-13T16:50:59.311Z,25.20
2018-01-13T16:53:26.232Z,26.67
2018-01-13T16:55:53.154Z,29.63
2018-01-13T16:58:20.845Z,27.45
2018-01-13T17:00:47.768Z,28.27
2018-01-13T17:03:14.668Z,27.90
2018-01-13T17:05:41.622Z,24.17
2018-01-13T17:08:08.536Z,28.02
2018-01-13T17:10:36.224Z,25.30
2018-01-13T17:13:03.122Z,23.40
2018-01-13T17:15:30.059Z,24.92
2018-01-13T17:17:56.958Z,26.33
2018-01-13T17:20:24.868Z,27.30
2018-01-13T17:22:51.777Z,24.02
2018-01-13T17:25:19.685Z,26.35
2018-01-13T17:27:46.611Z,25.37
2018-01-13T17:30:14.320Z,25.50
2018-01-13T17:32:41.252Z,23.75
2018-01-13T17:35:08.193Z,22.25
2018-01-13T17:37:35.105Z,27.62
2018-01-13T17:40:02.798Z,28.90
2018-01-13T17:42:29.732Z,27.00
2018-01-13T17:44:56.665Z,29.73
2018-01-13T17:47:23.625Z,27.42
2018-01-13T17:49:50.566Z,21.25
2018-01-13T17:52:17.504Z,21.85
2018-01-13T17:54:44.443Z,22.02
2018-01-13T17:57:11.349Z,23.42
2018-01-13T17:59:38.276Z,21.77
2018-01-13T18:02:05.196Z,23.42
2018-01-13T18:04:34.037Z,22.40
2018-01-13T18:07:00.944Z,23.08
2018-01-13T18:09:28.653Z,25.83
2018-01-13T18:11:56.357Z,22.67
2018-01-13T18:14:23.308Z,21.60
2018-01-13T18:16:51.259Z,25.23
2018-01-13T18:19:18.190Z,21.83
2018-01-13T18:21:45.125Z,25.55
2018-01-13T18:24:12.832Z,26.87
2018-01-13T18:26:39.835Z,24.55
2018-01-13T18:29:07.540Z,27.30
2018-01-13T18:31:34.467Z,23.20
2018-01-13T18:34:01.413Z,20.75
2018-01-13T18:36:28.345Z,30.00
2018-01-13T18:38:55.297Z,28.80
2018-01-13T18:41:22.249Z,27.85
2018-01-13T18:43:50.097Z,40.08
2018-01-13T18:46:17.020Z,27.80
2018-01-13T18:48:44.756Z,24.67
2018-01-13T18:51:11.741Z,21.83
2018-01-13T18:53:39.503Z,25.37
2018-01-13T18:56:08.876Z,25.90
2018-01-13T18:58:39.550Z,24.27
2018-01-13T19:01:06.470Z,23.00
2018-01-13T19:03:34.151Z,25.05
2018-01-13T19:06:01.095Z,21.62
2018-01-13T19:08:28.160Z,22.23
2018-01-13T19:10:55.124Z,21.17
2018-01-13T19:13:22.100Z,21.80
2018-01-13T19:15:49.031Z,16.98
2018-01-13T19:18:16.035Z,17.42
2018-01-13T19:20:43.030Z,20.98
2018-01-13T19:23:09.940Z,19.55
2018-01-13T19:25:36.875Z,21.42
2018-01-13T19:28:04.696Z,20.67
2018-01-13T19:30:32.428Z,23.55
2018-01-13T19:32:59.343Z,23.92
2018-01-13T19:35:26.298Z,18.92
2018-01-13T19:37:53.236Z,21.85
2018-01-13T19:40:20.180Z,19.83
2018-01-13T19:42:48.204Z,27.05
2018-01-13T19:45:15.170Z,21.00
2018-01-13T19:47:42.376Z,22.70
2018-01-13T19:50:09.305Z,24.10
2018-01-13T19:52:37.221Z,25.40
2018-01-13T19:55:04.172Z,23.38
2018-01-13T19:57:31.099Z,25.77
2018-01-13T19:59:58.809Z,29.30
2018-01-13T20:02:25.727Z,26.48
2018-01-13T20:04:52.654Z,24.85
2018-01-13T20:07:19.564Z,25.58
2018-01-13T20:09:46.479Z,22.58
2018-01-13T20:12:13.386Z,22.90
2018-01-13T20:14:41.072Z,16.48
2018-01-13T20:17:07.972Z,16.98
2018-01-13T20:19:34.889Z,20.48
2018-01-13T20:22:01.795Z,22.02
2018-01-13T20:24:28.731Z,19.65
2018-01-13T20:26:57.420Z,20.60
2018-01-13T20:29:25.108Z,19.67
2018-01-13T20:31:52.020Z,20.35
2018-01-13T20:34:19.713Z,18.33
2018-01-13T20:36:48.598Z,21.42
2018-01-13T20:39:19.451Z,28.02
2018-01-13T20:41:46.356Z,24.25
2018-01-13T20:44:14.865Z,24.58
2018-01-13T20:46:41.776Z,29.10
2018-01-13T20:49:12.469Z,20.52
2018-01-13T20:51:42.939Z,17.27
2018-01-13T20:54:09.876Z,21.73
2018-01-13T20:56:36.793Z,19.80
2018-01-13T20:59:03.725Z,18.15
2018-01-13T21:01:30.732Z,19.27
2018-01-13T21:03:58.451Z,19.80
2018-01-13T21:06:25.412Z,19.52
2018-01-13T21:08:52.346Z,22.17
2018-01-13T21:11:20.181Z,22.45
2018-01-13T21:13:47.156Z,23.80
2018-01-13T21:16:14.099Z,28.70
2018-01-13T21:18:41.777Z,24.65
2018-01-13T21:21:08.700Z,22.48
2018-01-13T21:23:35.613Z,25.37
2018-01-13T21:26:02.541Z,27.83
2018-01-13T21:28:29.494Z,59.55
2018-01-13T21:30:56.425Z,29.80
2018-01-13T21:33:24.107Z,27.10
2018-01-13T21:35:51.036Z,17.12
2018-01-13T21:38:17.956Z,24.98
2018-01-13T21:40:44.878Z,22.23
2018-01-13T21:43:11.800Z,25.48
2018-01-13T21:45:38.752Z,23.55
2018-01-13T21:48:05.676Z,25.08
2018-01-13T21:50:32.607Z,22.70
2018-01-13T21:55:31.448Z,31.02
2018-01-13T21:57:58.411Z,39.78
2018-01-13T22:00:25.302Z,28.02
2018-01-13T22:02:52.228Z,27.48
2018-01-13T22:05:19.165Z,21.02
2018-01-13T22:07:46.856Z,20.62
2018-01-13T22:10:13.763Z,23.05
2018-01-13T22:12:40.694Z,21.10
2018-01-13T22:15:07.600Z,25.77
2018-01-13T22:17:34.516Z,24.85
2018-01-13T22:20:01.454Z,25.85
2018-01-13T22:22:28.408Z,21.17
2018-01-13T22:24:56.878Z,19.75
2018-01-13T22:27:23.805Z,23.17
2018-01-13T22:29:50.728Z,23.23
2018-01-13T22:32:17.667Z,21.87
2018-01-13T22:34:44.586Z,20.62
2018-01-13T22:37:12.304Z,19.62
2018-01-13T22:39:39.206Z,24.83
2018-01-13T22:42:06.129Z,21.52
2018-01-13T22:44:33.816Z,19.33
2018-01-13T22:47:00.740Z,22.20
2018-01-13T22:49:29.429Z,26.77
2018-01-13T22:51:57.152Z,26.62
2018-01-13T22:54:24.055Z,20.75
2018-01-13T22:56:51.015Z,19.42
2018-01-13T22:59:17.938Z,24.98
2018-01-13T23:01:45.636Z,20.15
2018-01-13T23:04:12.589Z,20.33
2018-01-13T23:06:39.496Z,22.73
2018-01-13T23:09:06.456Z,21.35
2018-01-13T23:11:33.376Z,16.83
2018-01-13T23:14:01.093Z,22.55
2018-01-13T23:16:28.002Z,20.55
2018-01-13T23:18:54.979Z,21.10
2018-01-13T23:21:21.922Z,20.98
2018-01-13T23:23:48.877Z,21.05
2018-01-13T23:26:15.795Z,20.62
2018-01-13T23:31:15.032Z,19.77
2018-01-13T23:33:41.941Z,23.77
2018-01-13T23:36:08.948Z,26.05
2018-01-13T23:38:35.932Z,24.45
2018-01-13T23:41:02.857Z,22.52
2018-01-13T23:43:30.548Z,22.67
2018-01-13T23:45:57.508Z,23.30
2018-01-13T23:48:25.623Z,20.55
2018-01-13T23:50:53.340Z,22.05
2018-01-13T23:53:20.260Z,24.67
2018-01-13T23:55:47.191Z,24.65
2018-01-13T23:58:14.101Z,20.08
